Time;durP1;ratioP1;P1;durP2;ratioP2;P2;SDS_P1;SDS_P2;PMS_P1;PMS_P2;Temp;Humidity;BMP_temperature;BMP_pressure;BME280_temperature;BME280_humidity;BME280_pressure;Samples;Min_cycle;Max_cycle;Signal;HPM_P1;HPM_P2
2022/01/14 00:00:18;;;;;;;31.77;14.95;;;;;;;0.04;80.63;147682.73;1765545;81;21007;-60
2022/01/14 00:02:45;;;;;;;34.30;15.60;;;;;;;0.11;80.44;147700.75;1768706;81;21117;-60
2022/01/14 00:05:12;;;;;;;37.15;16.40;;;;;;;0.16;80.21;147712.34;1770647;81;21017;-60
2022/01/14 00:07:39;;;;;;;32.17;15.23;;;;;;;0.20;80.01;147723.94;1770836;79;21033;-60
2022/01/14 00:10:08;;;;;;;38.10;15.98;;;;;;;0.23;79.74;147731.66;1765536;81;21639;-61
2022/01/14 00:12:40;;;;;;;33.65;16.12;;;;;;;0.27;79.45;147741.94;1770115;81;21059;-61
2022/01/14 00:15:24;;;;;;;33.65;16.17;;;;;;;0.31;79.26;147749.66;1733675;82;21028;-59
2022/01/14 00:17:41;;;;;;;36.93;16.73;;;;;;;0.36;78.94;147762.56;1721758;83;21060;-60
2022/01/14 00:20:10;;;;;;;38.10;17.52;;;;;;;0.37;78.56;147765.14;1701883;83;21569;-60
2022/01/14 00:22:38;;;;;;;38.80;17.85;;;;;;;0.37;78.24;147766.41;1736274;81;21037;-60
2022/01/14 00:33:09;;;;;;;38.90;17.10;;;;;;;0.45;77.87;147785.72;1770683;81;21447;-60
2022/01/14 00:35:40;;;;;;;35.95;17.52;;;;;;;0.45;77.97;147785.72;1767446;80;21700;-60
2022/01/14 00:38:08;;;;;;;35.98;16.35;;;;;;;0.48;78.11;147792.19;1764996;81;21096;-61
2022/01/14 00:40:34;;;;;;;38.02;16.97;;;;;;;0.52;78.17;147803.73;1766650;81;21189;-60
2022/01/14 00:43:01;;;;;;;39.50;16.27;;;;;;;0.58;78.29;147816.64;1769013;81;21371;-61
2022/01/14 00:45:28;;;;;;;36.60;16.55;;;;;;;0.62;78.28;147826.94;1766008;81;21056;-61
2022/01/14 00:47:55;;;;;;;31.42;15.63;;;;;;;0.63;78.25;147830.78;1765407;81;20933;-61
2022/01/14 00:50:22;;;;;;;31.42;15.45;;;;;;;0.64;78.37;147833.34;1754816;81;21048;-61
2022/01/14 00:52:49;;;;;;;35.58;16.07;;;;;;;0.65;78.44;147834.66;1764798;81;21159;-61
2022/01/14 00:55:18;;;;;;;35.90;16.90;;;;;;;0.65;78.47;147834.66;1752523;81;21021;-60
2022/01/14 01:00:33;;;;;;;35.48;15.93;;;;;;;0.67;78.74;147839.81;1783717;80;21009;-59
2022/01/14 01:03:01;;;;;;;33.73;15.18;;;;;;;0.69;78.95;147844.95;1764593;81;21032;-60
2022/01/14 01:05:28;;;;;;;29.98;14.90;;;;;;;0.72;78.98;147852.67;1765025;81;21787;-59
2022/01/14 01:08:10;;;;;;;35.25;16.93;;;;;;;0.75;78.97;147860.39;1765506;81;20941;-60
2022/01/14 01:10:30;;;;;;;33.70;14.80;;;;;;;0.74;79.03;147857.81;1746723;81;21072;-59
2022/01/14 01:13:17;;;;;;;33.10;16.05;;;;;;;0.75;79.22;147860.39;1770346;81;21033;-59
2022/01/14 01:15:34;;;;;;;29.77;14.55;;;;;;;0.78;79.34;147868.16;1733441;82;21099;-59
2022/01/14 01:18:01;;;;;;;35.65;15.13;;;;;;;0.81;79.39;147875.88;1726147;83;21453;-59
2022/01/14 01:20:28;;;;;;;35.80;15.48;;;;;;;0.81;79.43;147875.88;1725742;82;21077;-58
2022/01/14 01:22:54;;;;;;;30.43;15.00;;;;;;;0.83;79.49;147881.03;1726404;83;21579;-59
2022/01/14 01:25:29;;;;;;;34.40;15.18;;;;;;;0.83;79.53;147881.03;1719119;83;20938;-59
2022/01/14 01:27:54;;;;;;;31.40;14.70;;;;;;;0.83;79.67;147881.03;1724749;83;21018;-58
2022/01/14 01:32:59;;;;;;;33.23;15.75;;;;;;;0.87;80.07;147890.02;1724882;83;21092;-60
2022/01/14 01:35:27;;;;;;;33.28;15.58;;;;;;;0.90;80.07;147897.78;1725541;83;21124;-59
2022/01/14 01:37:54;;;;;;;31.33;14.68;;;;;;;0.89;80.10;147893.89;1725603;83;21077;-59
2022/01/14 01:40:21;;;;;;;33.28;15.30;;;;;;;0.90;80.29;147896.47;1725598;83;21503;-58
2022/01/14 01:42:48;;;;;;;31.17;15.20;;;;;;;0.91;80.34;147899.03;1726195;83;21859;-59
2022/01/14 01:45:20;;;;;;;37.20;15.78;;;;;;;0.91;80.45;147899.03;1725863;83;21049;-59
2022/01/14 01:47:49;;;;;;;32.98;15.18;;;;;;;0.91;80.58;147899.03;1724117;83;20970;-59
2022/01/14 01:50:15;;;;;;;31.27;15.50;;;;;;;0.90;80.81;147897.78;1714703;83;21514;-58
2022/01/14 01:52:42;;;;;;;31.48;15.40;;;;;;;0.91;80.98;147899.03;1726187;83;21716;-59
2022/01/14 01:55:09;;;;;;;34.73;14.43;;;;;;;0.93;81.06;147904.19;1726289;83;21113;-59
2022/01/14 01:57:36;;;;;;;28.32;14.13;;;;;;;0.94;81.11;147906.77;1723033;81;21008;-59
2022/01/14 02:00:08;;;;;;;30.57;15.43;;;;;;;0.94;81.22;147906.77;1723113;83;21394;-60
2022/01/14 02:02:38;;;;;;;29.87;14.10;;;;;;;0.95;81.32;147910.64;1722461;83;21019;-59
2022/01/14 02:05:06;;;;;;;32.17;15.15;;;;;;;0.96;81.33;147913.22;1722958;83;21059;-58
2022/01/14 02:07:33;;;;;;;30.70;14.33;;;;;;;0.98;81.33;147917.06;1724025;83;21515;-59
2022/01/14 02:10:00;;;;;;;29.50;14.03;;;;;;;0.99;81.51;147919.63;1723995;83;20929;-58
2022/01/14 02:12:35;;;;;;;32.30;15.38;;;;;;;1.03;81.48;147928.66;1721057;82;21112;-58
2022/01/14 02:15:08;;;;;;;32.67;15.23;;;;;;;1.04;81.46;147932.55;1721979;83;21088;-59
2022/01/14 02:17:32;;;;;;;31.20;14.53;;;;;;;1.04;81.52;147932.55;1719716;83;21064;-59
2022/01/14 02:22:57;;;;;;;34.55;14.45;;;;;;;1.07;81.72;147940.27;1787793;78;21421;-59
2022/01/14 02:25:29;;;;;;;33.00;15.10;;;;;;;1.09;81.76;147944.11;1809468;77;20947;-60
2022/01/14 02:28:00;;;;;;;30.08;15.13;;;;;;;1.08;81.77;147942.84;1776964;80;21391;-61
2022/01/14 02:30:27;;;;;;;31.17;14.68;;;;;;;1.06;81.86;147937.69;1776040;79;21068;-59
2022/01/14 02:32:54;;;;;;;32.42;15.10;;;;;;;1.06;82.02;147937.69;1778190;80;22226;-61
2022/01/14 02:35:20;;;;;;;31.02;15.30;;;;;;;1.03;82.21;147929.97;1776000;80;21103;-59
2022/01/14 02:37:47;;;;;;;37.83;15.30;;;;;;;1.03;82.43;147929.97;1778090;80;21079;-60
2022/01/14 02:40:14;;;;;;;32.23;14.85;;;;;;;1.05;82.42;147933.81;1777737;80;21508;-61
2022/01/14 02:42:40;;;;;;;31.87;14.18;;;;;;;1.04;82.35;147932.55;1743812;82;21115;-60
2022/01/14 02:45:11;;;;;;;29.70;14.40;;;;;;;1.04;82.30;147932.55;1775087;79;21297;-60
2022/01/14 02:47:38;;;;;;;31.93;14.85;;;;;;;1.02;82.23;147927.41;1774865;79;21232;-61
2022/01/14 02:50:08;;;;;;;36.95;15.00;;;;;;;1.02;82.26;147927.41;1774951;80;20952;-60
2022/01/14 02:52:54;;;;;;;32.20;14.60;;;;;;;1.02;82.11;147927.41;1779626;79;21010;-59
2022/01/14 02:55:19;;;;;;;29.02;14.15;;;;;;;1.02;81.95;147927.41;1803465;79;21102;-59
2022/01/14 02:57:53;;;;;;;30.00;14.70;;;;;;;1.01;81.71;147924.83;1776013;79;21106;-60
2022/01/14 03:00:24;;;;;;;30.62;14.30;;;;;;;1.04;81.59;147932.55;1770670;81;21095;-61
2022/01/14 03:02:51;;;;;;;29.72;14.23;;;;;;;1.06;81.32;147937.69;1770636;81;21056;-60
2022/01/14 03:05:20;;;;;;;27.60;14.05;;;;;;;1.07;81.13;147940.27;1770528;79;21976;-60
2022/01/14 03:07:48;;;;;;;31.62;15.03;;;;;;;1.06;80.84;147937.69;1770976;79;21109;-60
2022/01/14 03:10:16;;;;;;;34.63;15.08;;;;;;;1.05;80.51;147935.13;1770463;80;21146;-61
2022/01/14 03:12:43;;;;;;;31.17;14.33;;;;;;;1.02;79.81;147927.41;1769877;81;21501;-60
2022/01/14 03:15:11;;;;;;;31.68;14.83;;;;;;;1.00;79.16;147922.25;1768363;80;21033;-60
2022/01/14 03:17:39;;;;;;;28.85;14.10;;;;;;;0.98;78.91;147918.37;1770977;79;21045;-61
2022/01/14 03:23:03;;;;;;;26.60;13.90;;;;;;;0.99;78.11;147919.63;1803547;78;22643;-60
2022/01/14 03:28:04;;;;;;;26.05;13.18;;;;;;;0.92;77.87;147901.63;1764291;80;21803;-61
2022/01/14 03:30:31;;;;;;;30.80;13.68;;;;;;;0.90;77.79;147896.47;1720920;81;20992;-59
2022/01/14 03:32:58;;;;;;;26.42;13.28;;;;;;;0.91;77.83;147899.03;1723876;81;20969;-60
2022/01/14 03:35:24;;;;;;;29.95;13.55;;;;;;;0.93;77.68;147904.19;1750957;81;21032;-59
2022/01/14 03:37:52;;;;;;;30.50;13.88;;;;;;;0.91;77.60;147900.34;1751793;81;21536;-59
2022/01/14 03:40:18;;;;;;;28.35;13.55;;;;;;;0.90;77.62;147896.47;1738328;81;22185;-59
2022/01/14 03:42:45;;;;;;;26.25;13.32;;;;;;;0.90;77.78;147896.47;1765693;80;21595;-59
2022/01/14 03:45:12;;;;;;;29.27;14.50;;;;;;;0.92;77.80;147901.63;1736042;81;22111;-59
2022/01/14 03:47:38;;;;;;;30.15;12.90;;;;;;;0.94;77.80;147906.77;1741285;80;21089;-58
2022/01/14 03:50:06;;;;;;;29.42;14.03;;;;;;;0.95;77.79;147909.33;1739794;81;21008;-59
2022/01/14 03:52:34;;;;;;;24.25;12.93;;;;;;;0.95;77.74;147910.64;1758284;81;21146;-60
2022/01/14 03:55:00;;;;;;;24.23;12.43;;;;;;;0.96;77.76;147911.91;1762307;81;20988;-61
2022/01/14 03:57:27;;;;;;;29.70;13.50;;;;;;;0.96;77.78;147911.91;1758298;81;21356;-61
2022/01/14 03:59:54;;;;;;;24.32;11.95;;;;;;;0.97;77.88;147914.48;1732172;81;20929;-61
2022/01/14 04:02:21;;;;;;;25.30;12.60;;;;;;;0.98;77.87;147918.37;1752974;81;21084;-61
2022/01/14 04:04:47;;;;;;;28.80;13.05;;;;;;;1.00;77.80;147923.52;1749616;81;21548;-61
2022/01/14 04:07:14;;;;;;;28.77;13.22;;;;;;;1.00;77.78;147922.25;1738071;81;21064;-59
2022/01/14 04:09:41;;;;;;;26.82;12.40;;;;;;;0.98;77.68;147918.37;1723086;81;21045;-60
2022/01/14 04:12:15;;;;;;;30.50;12.90;;;;;;;0.96;77.70;147911.91;1756403;80;21043;-59
2022/01/14 04:17:04;;;;;;;26.45;12.98;;;;;;;0.98;77.78;147918.37;1763946;80;21797;-61
2022/01/14 04:19:31;;;;;;;27.00;12.53;;;;;;;0.99;77.93;147919.63;1775532;80;21083;-61
2022/01/14 04:21:58;;;;;;;25.23;12.73;;;;;;;1.02;77.85;147927.41;1725551;81;20994;-60
2022/01/14 04:24:24;;;;;;;25.40;11.80;;;;;;;1.02;77.78;147927.41;1763040;80;21497;-59
2022/01/14 04:26:51;;;;;;;26.00;11.97;;;;;;;1.03;77.79;147929.97;1772923;80;21047;-59
2022/01/14 04:29:18;;;;;;;26.10;12.03;;;;;;;1.03;77.87;147929.97;1739437;82;21102;-60
2022/01/14 04:31:45;;;;;;;26.62;11.68;;;;;;;1.07;77.92;147938.95;1739115;82;21545;-59
2022/01/14 04:34:15;;;;;;;28.87;13.25;;;;;;;1.08;77.90;147942.84;1738428;81;21111;-58
2022/01/14 04:36:41;;;;;;;26.62;12.63;;;;;;;1.10;77.95;147947.98;1741235;81;21075;-59
2022/01/14 04:39:09;;;;;;;28.47;12.70;;;;;;;1.11;78.01;147949.31;1742141;81;21348;-60
2022/01/14 04:41:36;;;;;;;24.45;11.38;;;;;;;1.11;78.17;147950.56;1737571;82;21094;-60
2022/01/14 04:44:06;;;;;;;26.50;12.30;;;;;;;1.14;78.39;147958.28;1706586;82;20894;-59
2022/01/14 04:46:59;;;;;;;24.70;12.35;;;;;;;1.18;78.53;147967.31;1737842;82;21541;-60
2022/01/14 04:49:05;;;;;;;26.50;12.07;;;;;;;1.20;78.60;147971.16;1733217;82;21148;-60
2022/01/14 04:51:32;;;;;;;23.80;11.48;;;;;;;1.20;78.74;147971.16;1745290;81;21043;-61
2022/01/14 04:53:59;;;;;;;24.90;11.38;;;;;;;1.20;78.90;147971.16;1749410;81;21111;-61
2022/01/14 04:56:28;;;;;;;22.48;11.12;;;;;;;1.20;79.06;147971.16;1725794;82;21115;-60
2022/01/14 04:58:55;;;;;;;22.15;11.05;;;;;;;1.21;79.27;147973.73;1733361;82;21000;-60
2022/01/14 05:01:24;;;;;;;23.85;11.57;;;;;;;1.20;79.46;147971.16;1715977;83;21483;-60
2022/01/14 05:03:51;;;;;;;21.17;10.85;;;;;;;1.22;79.56;147976.36;1769399;80;20989;-59
2022/01/14 05:06:17;;;;;;;24.07;10.55;;;;;;;1.24;79.68;147982.77;1784962;80;21154;-60
2022/01/14 05:08:44;;;;;;;22.90;11.53;;;;;;;1.28;79.57;147991.80;1783929;79;21033;-59
2022/01/14 05:11:24;;;;;;;25.10;11.60;;;;;;;1.29;79.47;147994.38;1737443;81;21044;-61
2022/01/14 05:13:45;;;;;;;22.60;10.68;;;;;;;1.30;79.48;147996.95;1725268;83;21028;-60
2022/01/14 05:16:12;;;;;;;21.52;11.48;;;;;;;1.31;79.53;147999.53;1726538;81;21111;-60
2022/01/14 05:18:40;;;;;;;21.93;11.05;;;;;;;1.31;79.63;147999.53;1726100;83;21128;-61
2022/01/14 05:21:07;;;;;;;22.32;11.08;;;;;;;1.32;79.70;148002.09;1746885;80;21516;-59
2022/01/14 05:23:34;;;;;;;23.47;12.25;;;;;;;1.33;79.79;148004.67;1719563;83;21053;-61
2022/01/14 05:26:01;;;;;;;22.25;11.22;;;;;;;1.36;79.95;148012.39;1761506;80;21431;-59
2022/01/14 05:28:28;;;;;;;23.70;11.60;;;;;;;1.38;80.01;148017.55;1775339;80;21612;-60
2022/01/14 05:30:55;;;;;;;23.57;11.18;;;;;;;1.41;80.01;148024.00;1775108;80;21324;-60
2022/01/14 05:33:21;;;;;;;24.72;11.70;;;;;;;1.43;80.04;148030.42;1745471;80;21545;-60
2022/01/14 05:35:48;;;;;;;23.52;12.58;;;;;;;1.43;80.10;148030.42;1766081;80;21075;-60
2022/01/14 05:38:15;;;;;;;23.57;11.43;;;;;;;1.45;80.20;148033.05;1781303;80;20972;-60
2022/01/14 05:40:41;;;;;;;27.10;11.90;;;;;;;1.48;80.29;148040.77;1767757;80;21092;-59
2022/01/14 05:43:08;;;;;;;27.77;11.57;;;;;;;1.48;80.37;148040.77;1743067;80;21091;-60
2022/01/14 05:45:34;;;;;;;26.17;11.75;;;;;;;1.48;80.48;148040.77;1742393;82;21080;-59
2022/01/14 05:48:02;;;;;;;27.82;11.53;;;;;;;1.48;80.69;148040.77;1774083;80;20945;-59
2022/01/14 05:50:29;;;;;;;26.42;11.93;;;;;;;1.51;80.90;148048.50;1778261;80;21071;-60
2022/01/14 05:52:56;;;;;;;28.62;11.28;;;;;;;1.52;80.99;148052.33;1775037;80;21548;-59
2022/01/14 05:55:25;;;;;;;32.60;11.73;;;;;;;1.54;81.09;148056.22;1774474;80;21072;-60
2022/01/14 05:57:52;;;;;;;28.92;12.05;;;;;;;1.55;81.25;148058.78;1748861;80;21040;-59
2022/01/14 06:00:20;;;;;;;32.88;13.32;;;;;;;1.59;81.40;148069.09;1774971;80;21040;-60
2022/01/14 06:02:50;;;;;;;34.73;12.82;;;;;;;1.61;81.42;148074.23;1740349;82;21422;-58
2022/01/14 06:05:19;;;;;;;31.00;13.38;;;;;;;1.65;81.45;148084.55;1741172;81;20948;-61
2022/01/14 06:07:45;;;;;;;35.45;13.22;;;;;;;1.65;81.52;148084.55;1727904;82;21699;-59
2022/01/14 06:10:12;;;;;;;37.53;13.72;;;;;;;1.67;81.70;148089.75;1691597;84;21061;-60
2022/01/14 06:12:39;;;;;;;37.53;14.03;;;;;;;1.72;81.71;148101.31;1772965;80;21798;-59
2022/01/14 06:15:07;;;;;;;33.40;12.82;;;;;;;1.74;81.68;148106.45;1775197;80;20945;-59
2022/01/14 06:17:36;;;;;;;29.52;12.40;;;;;;;1.78;81.68;148115.50;1749745;80;20984;-60
2022/01/14 06:20:04;;;;;;;32.88;12.07;;;;;;;1.79;81.45;148118.06;1772659;80;21128;-60
2022/01/14 06:22:31;;;;;;;25.75;11.50;;;;;;;1.77;81.38;148114.23;1771964;80;21574;-61
2022/01/14 06:25:00;;;;;;;21.20;11.08;;;;;;;1.79;81.32;148118.06;1765842;80;21060;-61
2022/01/14 06:27:27;;;;;;;27.87;12.60;;;;;;;1.79;81.07;148118.06;1743350;81;21747;-60
2022/01/14 06:29:54;;;;;;;33.95;13.13;;;;;;;1.77;80.93;148114.23;1766733;81;21049;-60
2022/01/14 06:32:20;;;;;;;21.23;10.65;;;;;;;1.80;80.78;148120.64;1765714;81;21879;-60
2022/01/14 06:34:47;;;;;;;24.37;11.55;;;;;;;1.80;80.38;148120.64;1766752;80;21450;-60
2022/01/14 06:37:14;;;;;;;23.52;10.60;;;;;;;1.78;80.08;148115.50;1774458;80;21032;-61
2022/01/14 06:39:40;;;;;;;24.50;11.63;;;;;;;1.79;79.83;148118.06;1740788;80;21128;-59
2022/01/14 06:42:07;;;;;;;22.42;11.20;;;;;;;1.78;79.55;148115.50;1733474;81;21189;-60
2022/01/14 06:44:35;;;;;;;24.63;11.20;;;;;;;1.77;79.30;148112.92;1766584;81;21085;-60
2022/01/14 06:47:04;;;;;;;24.30;11.90;;;;;;;1.77;79.02;148112.92;1766442;80;21061;-61
2022/01/14 06:49:31;;;;;;;29.35;12.88;;;;;;;1.75;78.86;148107.77;1735128;82;21482;-62
2022/01/14 06:51:57;;;;;;;20.97;10.48;;;;;;;1.73;78.75;148103.88;1764825;80;20978;-61
2022/01/14 06:54:25;;;;;;;27.32;11.33;;;;;;;1.75;78.65;148107.77;1760907;80;21012;-61
2022/01/14 06:56:52;;;;;;;25.25;10.23;;;;;;;1.75;78.59;148107.77;1749340;80;21578;-60
2022/01/14 06:59:19;;;;;;;24.70;10.93;;;;;;;1.76;78.51;148110.34;1741313;80;21065;-61
2022/01/14 07:01:46;;;;;;;23.47;10.72;;;;;;;1.78;78.56;148115.50;1735467;80;21465;-60
2022/01/14 07:04:13;;;;;;;19.82;9.85;;;;;;;1.78;78.44;148115.50;1758638;79;21525;-60
2022/01/14 07:06:40;;;;;;;21.68;8.98;;;;;;;1.77;78.26;148112.92;1733491;81;21051;-60
2022/01/14 07:09:06;;;;;;;21.33;11.20;;;;;;;1.75;78.18;148107.77;1732225;82;21525;-60
2022/01/14 07:11:36;;;;;;;20.45;10.13;;;;;;;1.74;78.21;148105.19;1738827;82;21079;-60
2022/01/14 07:14:04;;;;;;;21.68;10.00;;;;;;;1.76;78.12;148110.34;1726668;82;21445;-60
2022/01/14 07:16:32;;;;;;;22.95;10.38;;;;;;;1.75;78.08;148107.77;1721634;82;21119;-59
2022/01/14 07:19:01;;;;;;;21.75;10.20;;;;;;;1.76;78.14;148110.34;1739806;80;21002;-60
2022/01/14 07:21:34;;;;;;;25.02;10.55;;;;;;;1.77;78.10;148114.23;1755318;80;21194;-63
2022/01/14 07:24:03;;;;;;;24.52;10.40;;;;;;;1.78;78.05;148115.50;1740983;81;22427;-63
2022/01/14 07:26:30;;;;;;;22.02;10.63;;;;;;;1.77;78.26;148114.23;1788707;78;21072;-61
2022/01/14 07:29:13;;;;;;;22.35;11.38;;;;;;;1.81;78.26;148123.22;1782507;79;21626;-63
2022/01/14 07:31:40;;;;;;;23.00;10.53;;;;;;;1.81;78.16;148123.22;1786582;79;21040;-62
2022/01/14 07:34:06;;;;;;;23.40;11.18;;;;;;;1.81;78.23;148124.53;1786649;78;21562;-61
2022/01/14 07:36:33;;;;;;;21.55;11.35;;;;;;;1.83;78.24;148128.38;1790163;78;21036;-61
2022/01/14 07:39:01;;;;;;;23.38;11.00;;;;;;;1.84;78.29;148130.95;1787643;79;21028;-60
2022/01/14 07:41:29;;;;;;;22.40;10.50;;;;;;;1.88;78.41;148141.30;1789459;78;21179;-61
2022/01/14 07:43:56;;;;;;;23.67;10.43;;;;;;;1.91;78.28;148147.72;1785811;79;21106;-60
2022/01/14 07:46:22;;;;;;;19.55;10.20;;;;;;;1.92;78.23;148151.59;1788843;78;21884;-60
2022/01/14 07:48:49;;;;;;;22.32;10.53;;;;;;;1.93;78.20;148154.17;1780634;78;21511;-60
2022/01/14 07:51:20;;;;;;;21.00;10.08;;;;;;;1.93;78.21;148154.17;1779581;79;21044;-60
2022/01/14 07:53:49;;;;;;;25.40;11.65;;;;;;;1.95;78.24;148159.33;1757866;78;21064;-60
2022/01/14 07:56:16;;;;;;;19.00;9.40;;;;;;;1.94;78.31;148156.75;1787306;78;21040;-61
2022/01/14 07:58:43;;;;;;;22.20;10.55;;;;;;;1.98;78.37;148165.75;1788605;79;21086;-61
2022/01/14 08:01:10;;;;;;;21.23;9.93;;;;;;;2.00;78.34;148170.94;1786228;78;21061;-59
2022/01/14 08:03:36;;;;;;;21.60;10.30;;;;;;;2.01;78.32;148173.53;1787235;79;21593;-60
2022/01/14 08:06:04;;;;;;;20.55;10.50;;;;;;;2.03;78.36;148178.67;1782910;79;22317;-61
2022/01/14 08:08:31;;;;;;;21.90;10.08;;;;;;;2.05;78.33;148182.52;1778176;78;21055;-60
2022/01/14 08:10:58;;;;;;;17.92;9.63;;;;;;;2.06;78.30;148186.41;1783794;78;21148;-61
2022/01/14 08:13:25;;;;;;;21.60;10.18;;;;;;;2.10;78.23;148195.41;1789594;78;21056;-62
2022/01/14 08:15:52;;;;;;;20.50;10.28;;;;;;;2.13;78.10;148204.44;1790038;78;21044;-59
2022/01/14 08:18:18;;;;;;;20.92;9.53;;;;;;;2.17;78.02;148213.47;1790848;78;21068;-59
2022/01/14 08:20:45;;;;;;;19.98;10.18;;;;;;;2.21;77.99;148223.78;1789974;79;21040;-60
2022/01/14 08:23:11;;;;;;;22.05;9.78;;;;;;;2.24;77.75;148231.52;1785141;79;21104;-59
2022/01/14 08:25:38;;;;;;;24.90;9.80;;;;;;;2.26;77.65;148236.66;1787321;79;21044;-59
2022/01/14 08:28:05;;;;;;;23.42;11.30;;;;;;;2.28;77.55;148241.81;1786131;79;21020;-59
2022/01/14 08:30:34;;;;;;;19.12;9.63;;;;;;;2.32;77.58;148249.55;1753112;80;21085;-59
2022/01/14 08:33:01;;;;;;;19.00;9.60;;;;;;;2.34;77.19;148254.75;1727034;81;21073;-60
2022/01/14 08:35:29;;;;;;;19.90;10.23;;;;;;;2.32;77.04;148250.86;1727015;79;21540;-61
2022/01/14 08:37:56;;;;;;;21.02;10.15;;;;;;;2.32;77.08;148249.55;1720301;82;21578;-61
2022/01/14 08:40:23;;;;;;;22.98;10.80;;;;;;;2.33;77.14;148252.17;1785630;78;21101;-62
2022/01/14 08:42:54;;;;;;;20.82;10.60;;;;;;;2.33;77.24;148253.44;1780912;78;21528;-61
2022/01/14 08:45:21;;;;;;;22.87;11.40;;;;;;;2.36;77.27;148259.91;1786587;79;21052;-60
2022/01/14 08:47:52;;;;;;;22.45;10.80;;;;;;;2.38;77.24;148265.06;1787095;79;21272;-61
2022/01/14 08:50:28;;;;;;;23.40;10.85;;;;;;;2.40;77.20;148270.20;1788870;79;21024;-61
2022/01/14 08:52:55;;;;;;;24.50;10.48;;;;;;;2.42;77.06;148276.62;1789832;79;21064;-59
2022/01/14 08:55:22;;;;;;;22.05;10.45;;;;;;;2.43;76.98;148279.25;1792638;78;21095;-60
2022/01/14 08:58:03;;;;;;;22.98;11.03;;;;;;;2.46;77.04;148284.41;1800939;78;21087;-60
2022/01/14 09:00:37;;;;;;;21.50;10.32;;;;;;;2.47;76.84;148286.98;1734202;81;21629;-59
2022/01/14 09:03:04;;;;;;;28.27;10.58;;;;;;;2.47;76.92;148288.25;1795837;78;21068;-60
2022/01/14 09:05:32;;;;;;;23.38;10.78;;;;;;;2.48;76.93;148290.83;1789642;78;21120;-59
2022/01/14 09:08:02;;;;;;;26.75;11.43;;;;;;;2.49;76.83;148293.41;1797039;78;21787;-60
2022/01/14 09:10:29;;;;;;;24.23;11.38;;;;;;;2.48;76.82;148290.83;1791800;78;21068;-60
2022/01/14 09:12:56;;;;;;;24.00;11.83;;;;;;;2.46;76.86;148285.67;1787687;79;21165;-60
2022/01/14 09:15:22;;;;;;;23.45;11.40;;;;;;;2.46;76.90;148285.67;1793854;78;21048;-59
2022/01/14 09:17:49;;;;;;;22.25;11.60;;;;;;;2.48;76.91;148290.83;1788164;78;21072;-59
2022/01/14 09:20:16;;;;;;;25.15;11.50;;;;;;;2.48;76.91;148290.83;1790145;78;21042;-61
2022/01/14 09:22:48;;;;;;;25.52;12.10;;;;;;;2.50;77.00;148295.97;1785091;79;21143;-60
2022/01/14 09:25:12;;;;;;;29.63;12.43;;;;;;;2.52;76.97;148301.13;1783815;79;22515;-60
2022/01/14 09:27:42;;;;;;;28.70;13.28;;;;;;;2.56;76.97;148311.48;1794899;78;21087;-60
2022/01/14 09:30:12;;;;;;;29.15;13.45;;;;;;;2.59;77.15;148317.91;1764055;80;21146;-60
2022/01/14 09:32:39;;;;;;;27.22;13.58;;;;;;;2.67;77.11;148337.27;1786263;78;21162;-61
2022/01/14 09:35:08;;;;;;;27.07;12.73;;;;;;;2.69;76.93;148342.42;1795378;78;21142;-59
2022/01/14 09:37:35;;;;;;;32.45;13.25;;;;;;;2.72;76.87;148350.16;1785727;78;21663;-60
2022/01/14 09:40:02;;;;;;;29.02;13.43;;;;;;;2.75;76.88;148357.88;1797618;78;21017;-59
2022/01/14 09:42:30;;;;;;;33.18;14.30;;;;;;;2.79;76.77;148368.23;1790448;78;21038;-61
2022/01/14 09:44:59;;;;;;;27.20;12.85;;;;;;;2.81;76.69;148373.41;1789416;78;21060;-60
2022/01/14 09:47:26;;;;;;;29.32;14.65;;;;;;;2.84;76.64;148379.81;1787556;78;21168;-62
2022/01/14 09:49:53;;;;;;;31.12;13.58;;;;;;;2.84;76.70;148381.12;1800159;78;21281;-61
2022/01/14 09:52:20;;;;;;;31.30;14.35;;;;;;;2.86;76.74;148386.28;1792619;77;21059;-61
2022/01/14 09:54:47;;;;;;;39.48;13.83;;;;;;;2.88;76.77;148390.17;1790928;78;21075;-61
2022/01/14 09:57:16;;;;;;;31.35;13.53;;;;;;;2.90;76.81;148395.33;1788345;78;21115;-60
2022/01/14 09:59:43;;;;;;;28.05;13.18;;;;;;;2.93;76.90;148401.75;1792454;78;20988;-60
2022/01/14 10:02:32;;;;;;;28.17;13.28;;;;;;;2.95;76.96;148408.22;1793323;78;22259;-61
2022/01/14 10:04:59;;;;;;;31.25;14.83;;;;;;;2.98;76.92;148415.95;1803188;78;21549;-60
2022/01/14 10:07:27;;;;;;;28.57;13.70;;;;;;;2.99;77.01;148417.27;1791933;78;21126;-60
2022/01/14 10:09:57;;;;;;;25.23;13.28;;;;;;;2.99;76.98;148418.53;1789219;78;21064;-59
2022/01/14 10:12:22;;;;;;;31.45;14.15;;;;;;;3.02;77.05;148425.00;1793460;78;21011;-60
2022/01/14 10:14:58;;;;;;;30.45;14.38;;;;;;;3.04;77.07;148430.16;1790737;78;22366;-62
2022/01/14 10:17:25;;;;;;;31.27;13.43;;;;;;;3.06;77.01;148435.31;1783587;78;21100;-60
2022/01/14 10:19:52;;;;;;;26.25;12.75;;;;;;;3.09;76.96;148443.05;1795423;78;21075;-60
2022/01/14 10:22:24;;;;;;;27.82;13.60;;;;;;;3.11;76.77;148448.20;1791838;78;21410;-62
2022/01/14 10:25:01;;;;;;;33.67;14.95;;;;;;;3.14;76.72;148454.67;1796146;78;21068;-63
2022/01/14 10:27:44;;;;;;;28.42;13.60;;;;;;;3.17;76.54;148461.09;1802181;78;21033;-60
2022/01/14 10:30:24;;;;;;;27.45;13.70;;;;;;;3.18;76.50;148463.67;1793361;78;21021;-61
2022/01/14 10:33:00;;;;;;;25.25;13.00;;;;;;;3.20;76.49;148468.83;1797989;78;21462;-60
2022/01/14 10:35:30;;;;;;;30.68;13.03;;;;;;;3.22;76.50;148474.03;1789492;79;21058;-60
2022/01/14 10:37:59;;;;;;;25.50;13.38;;;;;;;3.27;76.50;148486.94;1789327;78;21616;-62
2022/01/14 10:40:31;;;;;;;30.88;13.58;;;;;;;3.31;76.48;148497.25;1793780;78;21309;-63
2022/01/14 10:43:05;;;;;;;24.75;13.10;;;;;;;3.34;76.36;148504.97;1796838;79;21006;-63
2022/01/14 10:45:32;;;;;;;35.47;14.17;;;;;;;3.38;76.34;148515.30;1794560;78;21081;-63
2022/01/14 10:48:03;;;;;;;24.75;12.33;;;;;;;3.42;76.30;148525.61;1797651;79;21048;-63
2022/01/14 10:50:41;;;;;;;28.40;13.38;;;;;;;3.48;76.21;148538.56;1793449;78;21072;-63
2022/01/14 10:53:13;;;;;;;27.30;13.78;;;;;;;3.52;76.11;148548.87;1788581;79;21499;-59
2022/01/14 10:55:48;;;;;;;24.67;12.82;;;;;;;3.55;75.95;148557.92;1788926;78;21070;-62
2022/01/14 10:58:27;;;;;;;26.50;13.65;;;;;;;3.58;75.92;148564.34;1793006;78;21085;-61
2022/01/14 11:01:02;;;;;;;25.72;12.70;;;;;;;3.61;75.79;148572.09;1791336;79;21929;-61
2022/01/14 11:03:36;;;;;;;23.77;12.55;;;;;;;3.63;75.72;148577.25;1796301;79;21062;-63
2022/01/14 11:06:24;;;;;;;25.85;13.08;;;;;;;3.65;75.59;148582.45;1790986;78;21091;-61
2022/01/14 11:09:06;;;;;;;27.32;12.68;;;;;;;3.67;75.50;148586.30;1798504;78;21222;-63
2022/01/14 11:11:35;;;;;;;29.15;13.40;;;;;;;3.68;75.47;148590.19;1758368;79;21082;-61
2022/01/14 11:14:05;;;;;;;26.35;12.73;;;;;;;3.69;75.49;148592.77;1784733;78;21787;-62
2022/01/14 11:16:32;;;;;;;24.65;12.53;;;;;;;3.76;75.46;148609.56;1792841;78;21137;-63
2022/01/14 11:19:01;;;;;;;28.07;13.58;;;;;;;3.84;75.34;148628.88;1791465;79;21097;-61
2022/01/14 11:24:29;;;;;;;27.90;13.83;;;;;;;3.95;75.11;148656.00;1791459;78;21059;-61
2022/01/14 11:27:00;;;;;;;26.60;13.25;;;;;;;4.03;74.92;148676.69;1793240;79;21134;-60
2022/01/14 11:29:41;;;;;;;25.08;13.13;;;;;;;4.09;74.71;148690.84;1785054;79;21745;-62
2022/01/14 11:32:09;;;;;;;26.73;12.78;;;;;;;4.14;74.31;148703.80;1786400;79;21937;-61
2022/01/14 11:34:44;;;;;;;26.17;12.82;;;;;;;4.19;74.13;148716.70;1762709;79;21045;-60
2022/01/14 11:37:17;;;;;;;26.35;13.60;;;;;;;4.23;73.94;148727.03;1783723;79;21006;-62
2022/01/14 11:39:58;;;;;;;24.30;12.85;;;;;;;4.29;73.67;148741.25;1787537;78;21398;-62
2022/01/14 11:42:46;;;;;;;25.95;11.95;;;;;;;4.37;73.52;148760.62;1787655;79;21066;-62
2022/01/14 11:45:17;;;;;;;22.15;11.63;;;;;;;4.44;73.25;148780.00;1786799;79;23224;-65
2022/01/14 11:47:48;;;;;;;22.85;11.95;;;;;;;4.51;73.02;148796.75;1790328;79;21065;-62
2022/01/14 11:50:32;;;;;;;25.55;12.82;;;;;;;4.59;72.83;148817.45;1785738;79;21072;-63